createdAt,value
2022-08-22T00:03:03.567Z,77.11
2022-08-22T00:03:16.084Z,82.18
2022-08-22T00:06:17.380Z,82.35
2022-08-22T00:09:59.246Z,82.27
2022-08-22T00:12:40.289Z,82.14
2022-08-22T00:15:44.497Z,82.19
2022-08-22T00:19:20.277Z,82.31
2022-08-22T00:22:10.424Z,82.44
2022-08-22T00:25:25.431Z,82.37
2022-08-22T00:28:43.388Z,82.38
2022-08-22T00:31:50.577Z,82.54
2022-08-22T00:34:58.965Z,82.72
2022-08-22T00:38:29.265Z,82.88
2022-08-22T00:42:00.469Z,83.06
2022-08-22T00:45:11.295Z,83.13
2022-08-22T00:48:40.344Z,83.27
2022-08-22T00:51:56.554Z,83.34
2022-08-22T00:55:16.181Z,83.43
2022-08-22T00:58:58.210Z,83.62
2022-08-22T01:02:49.185Z,83.96
2022-08-22T01:06:14.144Z,84.02
2022-08-22T01:09:46.905Z,84.19
2022-08-22T01:13:02.502Z,84.14
2022-08-22T01:15:55.757Z,84.08
2022-08-22T01:19:11.932Z,83.96
2022-08-22T01:22:29.438Z,84.03
2022-08-22T01:25:37.363Z,84.00
2022-08-22T01:28:57.289Z,84.31
2022-08-22T01:32:15.941Z,84.24
2022-08-22T01:35:10.186Z,84.24
2022-08-22T01:38:44.138Z,84.65
2022-08-22T01:42:11.140Z,84.72
2022-08-22T01:45:01.499Z,84.52
2022-08-22T01:48:12.453Z,84.75
2022-08-22T01:51:30.833Z,84.94
2022-08-22T01:54:54.086Z,85.07
2022-08-22T01:58:45.554Z,85.16
2022-08-22T02:02:29.771Z,85.23
2022-08-22T02:05:57.522Z,85.56
2022-08-22T02:09:23.774Z,85.72
2022-08-22T02:12:41.090Z,85.39
2022-08-22T02:16:27.412Z,85.30
2022-08-22T02:19:54.966Z,85.28
2022-08-22T02:23:26.931Z,84.98
2022-08-22T02:27:02.581Z,85.24
2022-08-22T02:30:25.709Z,85.23
2022-08-22T02:34:09.299Z,85.03
2022-08-22T02:37:55.364Z,84.90
2022-08-22T02:42:05.732Z,84.58
2022-08-22T02:46:03.776Z,83.92
2022-08-22T02:49:52.391Z,84.12
2022-08-22T02:53:07.709Z,84.51
2022-08-22T02:56:18.324Z,84.99
2022-08-22T03:00:01.586Z,85.04
2022-08-22T03:03:20.176Z,85.16
2022-08-22T03:07:08.804Z,85.56
2022-08-22T03:10:17.605Z,85.69
2022-08-22T03:14:03.868Z,86.04
2022-08-22T03:17:07.663Z,86.85
2022-08-22T03:20:31.008Z,87.03
2022-08-22T03:23:34.983Z,87.61
2022-08-22T03:27:32.433Z,87.75
2022-08-22T03:30:47.927Z,87.56
2022-08-22T03:34:18.417Z,87.43
2022-08-22T03:37:26.996Z,87.73
2022-08-22T03:41:18.144Z,87.65
2022-08-22T03:44:11.785Z,87.62
2022-08-22T03:47:19.812Z,87.58
2022-08-22T03:51:02.697Z,87.40
2022-08-22T03:54:18.358Z,87.41
2022-08-22T03:58:28.084Z,87.20
2022-08-22T04:02:02.784Z,87.59
2022-08-22T04:05:35.038Z,87.81
2022-08-22T04:08:50.395Z,87.67
2022-08-22T04:12:36.975Z,87.76
2022-08-22T04:16:13.342Z,87.93
2022-08-22T04:19:17.105Z,87.89
2022-08-22T04:23:17.254Z,88.17
2022-08-22T04:26:52.343Z,88.35
2022-08-22T04:29:52.479Z,88.57
2022-08-22T04:33:10.477Z,88.70
2022-08-22T04:36:48.498Z,89.05
2022-08-22T04:40:53.008Z,88.73
2022-08-22T04:44:42.072Z,88.16
2022-08-22T04:47:59.867Z,88.33
2022-08-22T04:51:02.564Z,88.33
2022-08-22T04:54:39.201Z,87.92
2022-08-22T04:58:32.088Z,87.83
2022-08-22T05:02:18.952Z,87.32
2022-08-22T05:06:05.554Z,86.89
2022-08-22T05:09:17.590Z,86.44
2022-08-22T05:12:32.882Z,86.45
2022-08-22T05:16:09.193Z,86.27
2022-08-22T05:19:31.738Z,86.25
2022-08-22T05:22:35.345Z,86.41
2022-08-22T05:25:27.931Z,86.33
2022-08-22T05:28:56.347Z,86.73
2022-08-22T05:32:23.341Z,87.49
2022-08-22T05:35:11.796Z,87.89
2022-08-22T05:38:01.258Z,88.18
2022-08-22T05:41:50.481Z,88.57
2022-08-22T05:44:44.209Z,88.89
2022-08-22T05:48:18.080Z,88.96
2022-08-22T05:52:00.213Z,88.58
2022-08-22T05:55:27.376Z,88.28
2022-08-22T05:58:44.707Z,88.01
2022-08-22T06:02:17.863Z,87.52
2022-08-22T06:05:27.865Z,87.14
2022-08-22T06:08:07.947Z,86.98
2022-08-22T06:11:33.758Z,86.86
2022-08-22T06:14:42.175Z,86.74
2022-08-22T06:17:36.697Z,86.45
2022-08-22T06:20:59.853Z,85.80
2022-08-22T06:23:32.909Z,85.53
2022-08-22T06:26:30.748Z,85.53
2022-08-22T06:29:06.854Z,85.24
2022-08-22T06:32:59.132Z,85.25
2022-08-22T06:36:22.133Z,85.16
2022-08-22T06:39:43.704Z,84.97
2022-08-22T06:42:48.723Z,84.58
2022-08-22T06:46:01.946Z,83.98
2022-08-22T06:49:28.574Z,83.68
2022-08-22T06:52:52.702Z,83.66
2022-08-22T06:56:19.187Z,82.93
2022-08-22T06:59:32.444Z,82.54
2022-08-22T07:02:58.652Z,82.60
2022-08-22T07:06:25.804Z,83.21
2022-08-22T07:09:44.463Z,83.73
2022-08-22T07:13:15.350Z,83.83
2022-08-22T07:17:04.749Z,83.38
2022-08-22T07:20:48.455Z,82.73
2022-08-22T07:23:57.789Z,82.38
2022-08-22T07:27:09.088Z,82.42
2022-08-22T07:30:13.182Z,82.82
2022-08-22T07:33:42.385Z,82.76
2022-08-22T07:36:56.641Z,82.03
2022-08-22T07:40:12.698Z,82.53
2022-08-22T07:43:26.194Z,82.72
2022-08-22T07:46:39.220Z,81.87
2022-08-22T07:50:17.799Z,81.76
2022-08-22T07:53:11.923Z,81.88
2022-08-22T07:56:52.073Z,81.65
2022-08-22T08:00:11.757Z,81.27
2022-08-22T08:03:21.397Z,81.32
2022-08-22T08:06:16.092Z,81.08
2022-08-22T08:09:41.515Z,80.52
2022-08-22T08:12:37.458Z,80.33
2022-08-22T08:15:25.785Z,80.24
2022-08-22T08:18:53.966Z,79.67
2022-08-22T08:22:32.486Z,79.76
2022-08-22T08:25:40.049Z,79.69
2022-08-22T08:28:36.016Z,79.79
2022-08-22T08:32:19.756Z,79.82
2022-08-22T08:36:08.639Z,78.99
2022-08-22T08:39:39.580Z,78.54
2022-08-22T08:43:25.590Z,78.08
2022-08-22T08:46:26.232Z,78.19
2022-08-22T08:50:13.852Z,78.65
2022-08-22T08:53:56.764Z,78.15
2022-08-22T08:57:34.814Z,78.02
2022-08-22T09:00:49.082Z,78.03
2022-08-22T09:04:15.148Z,77.76
2022-08-22T09:07:39.416Z,77.79
2022-08-22T09:11:14.397Z,78.03
2022-08-22T09:14:46.093Z,78.78
2022-08-22T09:17:39.328Z,78.98
2022-08-22T09:20:53.981Z,78.70
2022-08-22T09:23:54.961Z,78.34
2022-08-22T09:30:46.176Z,77.69
2022-08-22T09:33:45.576Z,77.55
2022-08-22T09:37:15.011Z,77.58
2022-08-22T09:41:05.933Z,77.33
2022-08-22T09:45:04.792Z,77.10
2022-08-22T09:48:49.581Z,76.37
2022-08-22T09:51:33.436Z,76.37
2022-08-22T09:55:07.977Z,75.97
2022-08-22T09:58:58.081Z,74.90
2022-08-22T10:02:15.713Z,74.12
2022-08-22T10:05:41.157Z,73.48
2022-08-22T10:08:48.033Z,73.18
2022-08-22T10:12:24.771Z,72.96
2022-08-22T10:16:14.649Z,72.68
2022-08-22T10:19:57.180Z,71.78
2022-08-22T10:23:55.857Z,71.60
2022-08-22T10:27:57.457Z,70.94
2022-08-22T10:31:45.119Z,71.38
2022-08-22T10:35:34.047Z,70.50
2022-08-22T10:39:33.013Z,70.39
2022-08-22T10:43:28.596Z,70.23
2022-08-22T10:47:15.031Z,70.08
2022-08-22T10:51:03.213Z,70.10
2022-08-22T10:55:09.915Z,68.92
2022-08-22T10:58:47.468Z,68.17
2022-08-22T11:02:44.725Z,67.82
2022-08-22T11:06:38.727Z,68.12
2022-08-22T11:10:13.220Z,67.93
2022-08-22T11:13:46.859Z,66.58
2022-08-22T11:18:04.497Z,66.12
2022-08-22T11:22:03.828Z,65.66
2022-08-22T11:25:56.671Z,65.47
2022-08-22T11:29:37.368Z,64.24
2022-08-22T11:33:21.842Z,63.82
2022-08-22T11:37:11.527Z,63.62
2022-08-22T11:41:11.534Z,62.88
2022-08-22T11:45:01.813Z,62.22
2022-08-22T11:48:54.910Z,60.68
2022-08-22T11:53:01.668Z,59.76
2022-08-22T11:57:10.280Z,59.38
2022-08-22T12:01:02.547Z,59.88
2022-08-22T12:05:02.720Z,59.82
2022-08-22T12:08:55.771Z,58.93
2022-08-22T12:12:51.745Z,58.44
2022-08-22T12:16:21.878Z,58.04
2022-08-22T12:20:16.334Z,57.23
2022-08-22T12:24:11.367Z,57.29
2022-08-22T12:28:08.066Z,57.24
2022-08-22T12:32:10.447Z,55.75
2022-08-22T12:36:03.960Z,55.80
2022-08-22T12:39:53.629Z,54.83
2022-08-22T12:43:49.863Z,54.56
2022-08-22T12:47:46.373Z,53.47
2022-08-22T12:51:18.190Z,53.35
2022-08-22T12:55:16.280Z,53.78
2022-08-22T12:59:04.757Z,53.04
2022-08-22T13:02:58.352Z,52.53
2022-08-22T13:06:48.593Z,52.86
2022-08-22T13:10:36.516Z,54.16
2022-08-22T13:14:26.003Z,53.98
2022-08-22T13:18:28.658Z,52.87
2022-08-22T13:22:18.145Z,53.03
2022-08-22T13:26:08.491Z,53.08
2022-08-22T13:30:00.369Z,53.73
2022-08-22T13:33:50.970Z,53.95
2022-08-22T13:37:44.734Z,53.06
2022-08-22T13:41:32.158Z,52.76
2022-08-22T13:45:21.776Z,53.20
2022-08-22T13:49:24.168Z,53.17
2022-08-22T13:53:11.515Z,53.00
2022-08-22T13:57:01.565Z,52.86
2022-08-22T14:00:58.102Z,52.51
2022-08-22T14:04:46.501Z,52.55
2022-08-22T14:08:33.739Z,52.06
2022-08-22T14:12:23.547Z,51.46
2022-08-22T14:16:10.707Z,51.49
2022-08-22T14:20:11.012Z,51.72
2022-08-22T14:24:04.579Z,52.13
2022-08-22T14:27:55.260Z,52.18
2022-08-22T14:31:54.013Z,51.70
2022-08-22T14:35:40.952Z,51.96
2022-08-22T14:39:22.368Z,51.27
2022-08-22T14:43:09.990Z,51.38
2022-08-22T14:47:00.297Z,50.50
2022-08-22T14:50:52.936Z,49.46
2022-08-22T14:54:42.684Z,48.51
2022-08-22T14:58:32.710Z,47.86
2022-08-22T15:02:29.717Z,48.40
2022-08-22T15:06:21.868Z,48.30
2022-08-22T15:10:21.562Z,48.29
2022-08-22T15:14:08.525Z,48.92
2022-08-22T15:18:12.830Z,49.40
2022-08-22T15:22:05.180Z,49.69
2022-08-22T15:25:55.756Z,49.91
2022-08-22T15:29:43.831Z,50.18
2022-08-22T15:33:30.808Z,50.17
2022-08-22T15:37:24.016Z,50.09
2022-08-22T15:41:23.491Z,50.57
2022-08-22T15:45:13.140Z,50.71
2022-08-22T15:48:43.370Z,51.25
2022-08-22T15:52:42.083Z,51.27
2022-08-22T15:56:35.120Z,52.03
2022-08-22T16:00:34.646Z,52.19
2022-08-22T16:04:33.909Z,52.76
2022-08-22T16:08:33.159Z,53.12
2022-08-22T16:12:00.416Z,53.42
2022-08-22T16:15:49.356Z,53.84
2022-08-22T16:19:21.349Z,54.16
2022-08-22T16:22:34.528Z,54.11
2022-08-22T16:26:24.555Z,54.18
2022-08-22T16:30:00.348Z,54.16
2022-08-22T16:33:50.031Z,54.33
2022-08-22T16:37:18.101Z,54.23
2022-08-22T16:41:05.027Z,54.33
2022-08-22T16:44:36.841Z,54.58
2022-08-22T16:47:58.852Z,54.71
2022-08-22T16:51:48.199Z,54.56
2022-08-22T16:55:41.564Z,54.49
2022-08-22T16:59:43.700Z,54.54
2022-08-22T17:03:35.955Z,54.49
2022-08-22T17:07:09.110Z,53.93
2022-08-22T17:10:39.322Z,53.84
2022-08-22T17:14:50.782Z,54.36
2022-08-22T17:18:40.674Z,55.08
2022-08-22T17:22:15.712Z,55.31
2022-08-22T17:25:09.858Z,55.63
2022-08-22T17:27:39.919Z,55.66
2022-08-22T17:30:23.884Z,55.76
2022-08-22T17:34:01.248Z,55.68
2022-08-22T17:36:52.539Z,55.62
2022-08-22T17:39:30.003Z,55.24
2022-08-22T17:42:37.551Z,55.31
2022-08-22T17:45:27.102Z,55.71
2022-08-22T17:48:04.378Z,56.71
2022-08-22T17:51:14.070Z,57.34
2022-08-22T17:54:08.009Z,58.41
2022-08-22T17:57:06.202Z,59.35
2022-08-22T18:00:04.055Z,59.43
2022-08-22T18:02:38.806Z,59.51
2022-08-22T18:05:28.404Z,59.69
2022-08-22T18:09:13.349Z,59.87
2022-08-22T18:11:40.390Z,60.37
2022-08-22T18:14:19.967Z,61.14
2022-08-22T18:16:52.152Z,61.27
2022-08-22T18:19:30.663Z,62.19
2022-08-22T18:22:25.061Z,62.55
2022-08-22T18:25:27.686Z,63.20
2022-08-22T18:28:07.128Z,63.54
2022-08-22T18:30:50.263Z,63.64
2022-08-22T18:33:43.355Z,63.80
2022-08-22T18:36:31.998Z,64.24
2022-08-22T18:39:18.586Z,64.25
2022-08-22T18:41:52.839Z,64.02
2022-08-22T18:44:27.841Z,64.04
2022-08-22T18:47:01.551Z,64.45
2022-08-22T18:49:30.308Z,64.64
2022-08-22T18:52:22.820Z,64.56
2022-08-22T18:55:21.971Z,64.52
2022-08-22T18:58:31.207Z,64.69
2022-08-22T19:01:21.279Z,64.41
2022-08-22T19:04:21.192Z,64.28
2022-08-22T19:07:02.847Z,64.34
2022-08-22T19:10:03.519Z,64.74
2022-08-22T19:12:54.633Z,65.07
2022-08-22T19:15:43.233Z,65.19
2022-08-22T19:18:44.743Z,65.31
2022-08-22T19:21:38.727Z,65.22
2022-08-22T19:24:12.996Z,65.34
2022-08-22T19:26:48.049Z,65.36
2022-08-22T19:29:16.403Z,65.33
2022-08-22T19:31:48.333Z,65.60
2022-08-22T19:34:28.658Z,65.82
2022-08-22T19:37:31.034Z,66.05
2022-08-22T19:40:08.373Z,66.26
2022-08-22T19:42:41.779Z,66.25
2022-08-22T19:45:39.723Z,66.40
2022-08-22T19:48:14.237Z,66.74
2022-08-22T19:50:43.507Z,67.04
2022-08-22T19:53:48.101Z,67.29
2022-08-22T19:56:18.977Z,67.36
2022-08-22T19:58:55.694Z,67.52
2022-08-22T20:01:37.105Z,67.52
2022-08-22T20:04:40.795Z,67.55
2022-08-22T20:07:59.225Z,67.55
2022-08-22T20:10:50.219Z,67.71
2022-08-22T20:13:59.858Z,67.74
2022-08-22T20:17:05.842Z,67.91
2022-08-22T20:20:34.499Z,68.11
2022-08-22T20:23:31.515Z,68.26
2022-08-22T20:26:21.684Z,68.28
2022-08-22T20:28:51.792Z,68.43
2022-08-22T20:32:07.917Z,69.00
2022-08-22T20:35:55.480Z,69.69
2022-08-22T20:39:48.457Z,68.97
2022-08-22T20:43:46.359Z,68.85
2022-08-22T20:47:41.118Z,68.61
2022-08-22T20:51:29.817Z,68.59
2022-08-22T20:55:17.431Z,68.35
2022-08-22T20:59:04.898Z,68.31
2022-08-22T21:02:52.103Z,68.40
2022-08-22T21:06:48.470Z,68.23
2022-08-22T21:10:34.097Z,68.14
2022-08-22T21:14:21.634Z,68.23
2022-08-22T21:18:18.203Z,68.68
2022-08-22T21:22:11.800Z,68.86
2022-08-22T21:26:07.451Z,69.16
2022-08-22T21:29:34.977Z,69.30
2022-08-22T21:32:31.745Z,69.38
2022-08-22T21:35:18.830Z,69.58
2022-08-22T21:37:49.047Z,69.67
2022-08-22T21:41:21.746Z,69.39
2022-08-22T21:45:20.125Z,69.68
2022-08-22T21:48:54.835Z,69.78
2022-08-22T21:52:42.457Z,69.91
2022-08-22T21:56:29.042Z,70.16
2022-08-22T21:59:59.363Z,70.13
2022-08-22T22:03:10.962Z,70.18
2022-08-22T22:06:22.456Z,70.42
2022-08-22T22:08:59.753Z,70.54
2022-08-22T22:11:51.166Z,70.66
2022-08-22T22:14:44.246Z,70.80
2022-08-22T22:17:51.699Z,70.99
2022-08-22T22:20:52.422Z,71.26
2022-08-22T22:23:46.269Z,71.28
2022-08-22T22:26:45.535Z,71.38
2022-08-22T22:29:28.748Z,71.39
2022-08-22T22:32:24.949Z,71.44
2022-08-22T22:35:48.163Z,71.49
2022-08-22T22:39:16.968Z,71.74
2022-08-22T22:43:05.036Z,71.91
2022-08-22T22:46:19.801Z,71.85
2022-08-22T22:50:06.529Z,71.90
2022-08-22T22:53:53.204Z,72.22
2022-08-22T22:56:41.064Z,72.37
2022-08-22T22:59:33.600Z,72.28
2022-08-22T23:02:47.106Z,72.37
2022-08-22T23:05:35.408Z,72.56
2022-08-22T23:08:09.431Z,72.59
2022-08-22T23:11:38.528Z,72.71
2022-08-22T23:15:25.155Z,72.77
2022-08-22T23:18:33.208Z,72.77
2022-08-22T23:21:51.513Z,72.96
2022-08-22T23:25:20.181Z,73.04
2022-08-22T23:27:58.521Z,73.42
2022-08-22T23:30:55.401Z,73.70
2022-08-22T23:33:39.525Z,73.50
2022-08-22T23:36:18.831Z,73.73
2022-08-22T23:38:51.446Z,73.56
2022-08-22T23:41:23.220Z,73.50
2022-08-22T23:44:13.467Z,73.69
2022-08-22T23:47:03.626Z,73.80
2022-08-22T23:49:34.569Z,74.07
2022-08-22T23:52:06.124Z,74.38
2022-08-22T23:54:42.777Z,74.55
2022-08-22T23:57:12.087Z,74.57
2022-08-22T23:59:46.242Z,74.65
